Time;durP1;ratioP1;P1;durP2;ratioP2;P2;SDS_P1;SDS_P2;PMS_P1;PMS_P2;Temp;Humidity;BMP_temperature;BMP_pressure;BME280_temperature;BME280_humidity;BME280_pressure;Samples;Min_cycle;Max_cycle;Signal;HPM_P1;HPM_P2
2023/01/31 00:00:03;;;;;;;5.85;4.60;;;4.80;63.20;;;;;;5093979;28;20465;-65
2023/01/31 00:02:30;;;;;;;5.03;4.25;;;4.80;63.20;;;;;;5093815;28;20035;-64
2023/01/31 00:04:55;;;;;;;5.97;4.60;;;4.80;63.20;;;;;;5092474;28;20036;-64
2023/01/31 00:07:21;;;;;;;5.88;4.65;;;4.80;63.10;;;;;;5093635;28;20044;-64
2023/01/31 00:09:47;;;;;;;5.28;4.20;;;4.80;63.20;;;;;;5092643;28;20150;-64
2023/01/31 00:12:12;;;;;;;6.97;4.88;;;4.80;63.20;;;;;;5092318;28;20035;-65
2023/01/31 00:14:38;;;;;;;5.45;4.40;;;4.80;63.20;;;;;;5094268;28;20027;-64
2023/01/31 00:17:03;;;;;;;6.05;4.53;;;4.80;63.20;;;;;;5093713;28;20032;-64
2023/01/31 00:19:29;;;;;;;5.78;4.55;;;4.80;63.20;;;;;;5093656;28;20035;-64
2023/01/31 00:21:56;;;;;;;5.53;4.38;;;4.80;63.20;;;;;;5093711;28;20031;-65
2023/01/31 00:24:22;;;;;;;5.68;4.40;;;4.80;63.20;;;;;;5092230;28;20055;-65
2023/01/31 00:26:49;;;;;;;6.45;4.57;;;4.80;63.20;;;;;;5093219;28;20040;-65
2023/01/31 00:29:14;;;;;;;5.28;4.15;;;4.80;63.10;;;;;;5093099;28;20024;-64
2023/01/31 00:31:40;;;;;;;6.32;4.70;;;4.80;63.10;;;;;;5093804;28;20437;-64
2023/01/31 00:34:06;;;;;;;5.43;4.30;;;4.80;63.10;;;;;;5093423;28;20035;-65
2023/01/31 00:36:33;;;;;;;5.97;4.55;;;4.80;63.10;;;;;;5093704;28;20038;-64
2023/01/31 00:39:01;;;;;;;4.90;4.13;;;4.80;63.10;;;;;;5093420;28;20454;-64
2023/01/31 00:41:28;;;;;;;5.07;4.25;;;4.80;63.10;;;;;;5093513;28;20028;-64
2023/01/31 00:43:54;;;;;;;5.43;4.20;;;4.70;63.10;;;;;;5093262;28;20052;-64
2023/01/31 00:46:21;;;;;;;6.10;4.78;;;4.70;63.10;;;;;;5093476;28;20032;-64
2023/01/31 00:48:47;;;;;;;6.03;4.43;;;4.80;63.10;;;;;;5093467;28;20024;-64
2023/01/31 00:51:12;;;;;;;5.20;4.40;;;4.80;63.10;;;;;;5093310;28;20028;-64
2023/01/31 00:53:38;;;;;;;5.53;4.15;;;4.70;63.10;;;;;;5097090;28;20035;-64
2023/01/31 00:56:12;;;;;;;5.43;4.20;;;4.70;63.10;;;;;;5097192;28;20035;-64
2023/01/31 00:58:40;;;;;;;5.20;4.22;;;4.70;63.10;;;;;;5097515;28;20488;-64
2023/01/31 01:01:08;;;;;;;5.38;3.92;;;4.70;63.10;;;;;;5095839;28;20024;-65
2023/01/31 01:03:34;;;;;;;5.55;4.43;;;4.70;63.10;;;;;;5097196;28;20107;-65
2023/01/31 01:06:00;;;;;;;4.97;4.25;;;4.80;63.10;;;;;;5096994;28;20044;-64
2023/01/31 01:08:26;;;;;;;6.00;4.30;;;4.70;63.10;;;;;;5096846;28;20097;-65
2023/01/31 01:10:52;;;;;;;5.65;4.43;;;4.70;63.00;;;;;;5096976;28;20032;-65
2023/01/31 01:13:18;;;;;;;5.13;4.30;;;4.80;63.10;;;;;;5095713;28;20347;-64
2023/01/31 01:15:43;;;;;;;5.25;4.13;;;4.80;63.10;;;;;;5096969;28;20078;-65
2023/01/31 01:18:09;;;;;;;5.38;4.25;;;4.70;63.10;;;;;;5095326;28;20042;-65
2023/01/31 01:20:35;;;;;;;5.05;4.28;;;4.70;63.00;;;;;;5096806;28;20020;-64
2023/01/31 01:23:01;;;;;;;5.63;4.25;;;4.80;63.10;;;;;;5095201;28;20024;-65
2023/01/31 01:25:26;;;;;;;5.75;4.47;;;4.70;63.00;;;;;;5096643;28;20054;-65
2023/01/31 01:27:52;;;;;;;5.88;4.43;;;4.80;63.10;;;;;;5096634;28;20024;-65
2023/01/31 01:30:19;;;;;;;5.38;4.18;;;4.80;63.00;;;;;;5096556;28;20053;-66
2023/01/31 01:32:45;;;;;;;6.35;4.25;;;4.70;63.00;;;;;;5096628;28;20024;-65
2023/01/31 01:35:11;;;;;;;5.75;4.50;;;4.80;63.00;;;;;;5096420;28;20024;-65
2023/01/31 01:37:36;;;;;;;5.63;4.72;;;4.80;63.00;;;;;;5095774;28;20517;-65
2023/01/31 01:40:03;;;;;;;5.68;4.50;;;4.80;63.00;;;;;;5095957;28;20106;-65
2023/01/31 01:42:34;;;;;;;5.35;4.57;;;4.80;63.00;;;;;;5096511;28;20066;-65
2023/01/31 01:45:03;;;;;;;5.65;4.50;;;4.70;63.00;;;;;;5096308;28;20032;-64
2023/01/31 01:47:52;;;;;;;5.63;4.88;;;4.70;63.00;;;;;;5094777;28;20028;-64
2023/01/31 01:50:29;;;;;;;5.55;4.15;;;4.80;63.00;;;;;;5094988;28;20099;-65
2023/01/31 01:53:05;;;;;;;5.38;4.22;;;4.70;62.90;;;;;;5096111;28;20368;-64
2023/01/31 01:55:40;;;;;;;5.43;4.15;;;4.70;62.90;;;;;;5096335;28;20055;-65
2023/01/31 01:58:29;;;;;;;5.60;4.43;;;4.80;63.00;;;;;;5094517;28;20028;-65
2023/01/31 02:00:55;;;;;;;5.95;4.25;;;4.80;62.90;;;;;;5075514;28;20070;-65
2023/01/31 02:03:22;;;;;;;5.80;4.28;;;4.70;62.90;;;;;;5095921;28;20056;-64
2023/01/31 02:05:53;;;;;;;6.13;4.20;;;4.80;63.00;;;;;;5096091;28;20081;-65
2023/01/31 02:08:22;;;;;;;5.47;4.32;;;4.80;63.00;;;;;;5094522;28;20083;-65
2023/01/31 02:11:00;;;;;;;5.22;4.38;;;4.70;62.90;;;;;;5095902;28;20028;-65
2023/01/31 02:13:26;;;;;;;5.75;4.35;;;4.70;62.90;;;;;;5094846;28;20032;-64
2023/01/31 02:15:52;;;;;;;5.45;4.32;;;4.80;63.00;;;;;;5095917;28;20032;-65
2023/01/31 02:18:21;;;;;;;5.40;4.28;;;4.70;62.90;;;;;;5095571;28;20028;-65
2023/01/31 02:21:20;;;;;;;5.65;4.43;;;4.80;62.90;;;;;;5095487;28;20537;-65
2023/01/31 02:23:58;;;;;;;5.80;4.15;;;4.80;62.90;;;;;;5094017;28;20488;-64
2023/01/31 02:26:54;;;;;;;6.50;4.75;;;4.80;62.90;;;;;;5095719;28;20036;-65
2023/01/31 02:29:41;;;;;;;5.90;4.32;;;4.80;62.90;;;;;;5095593;28;20064;-64
2023/01/31 02:32:28;;;;;;;5.68;4.40;;;4.80;62.90;;;;;;5094135;28;20028;-64
2023/01/31 02:35:12;;;;;;;5.85;4.65;;;4.70;62.90;;;;;;5095452;28;20466;-64
2023/01/31 02:37:51;;;;;;;5.50;4.43;;;4.80;62.90;;;;;;5094805;28;20028;-65
2023/01/31 02:40:25;;;;;;;5.78;4.47;;;4.80;62.90;;;;;;5074973;28;20034;-64
2023/01/31 02:42:59;;;;;;;5.72;4.43;;;4.70;62.90;;;;;;5075107;28;20028;-65
2023/01/31 02:45:58;;;;;;;5.70;4.40;;;4.70;62.90;;;;;;5074959;28;20044;-65
2023/01/31 02:48:30;;;;;;;5.13;4.15;;;4.80;62.90;;;;;;5073675;28;20162;-65
2023/01/31 02:51:07;;;;;;;5.43;4.05;;;4.70;62.80;;;;;;5092071;28;20024;-64
2023/01/31 02:53:36;;;;;;;5.70;4.43;;;4.80;62.90;;;;;;5095408;28;20377;-64
2023/01/31 02:56:18;;;;;;;5.40;4.15;;;4.70;62.90;;;;;;5094889;28;20027;-65
2023/01/31 02:59:04;;;;;;;5.60;4.18;;;4.70;62.90;;;;;;5093846;28;20043;-65
2023/01/31 03:01:34;;;;;;;5.30;4.20;;;4.70;62.80;;;;;;5093645;28;20027;-64
2023/01/31 03:04:04;;;;;;;4.90;4.13;;;4.70;62.80;;;;;;5094901;28;20527;-65
2023/01/31 03:06:32;;;;;;;5.60;4.38;;;4.80;62.90;;;;;;5093114;28;20047;-65
2023/01/31 03:09:01;;;;;;;5.43;3.88;;;4.80;62.90;;;;;;5094943;28;20016;-64
2023/01/31 03:11:42;;;;;;;4.95;3.97;;;4.70;62.90;;;;;;5093362;28;20400;-64
2023/01/31 03:14:23;;;;;;;5.60;4.57;;;4.70;62.90;;;;;;5093172;28;20028;-65
2023/01/31 03:19:59;;;;;;;5.45;4.10;;;4.80;62.90;;;;;;5094493;28;20111;-64
2023/01/31 03:22:30;;;;;;;4.95;3.92;;;4.70;62.80;;;;;;5093681;28;20069;-65
2023/01/31 03:24:57;;;;;;;5.15;4.05;;;4.70;62.80;;;;;;5094922;28;20024;-65
2023/01/31 03:27:23;;;;;;;5.57;4.30;;;4.80;62.90;;;;;;5094393;28;20032;-65
2023/01/31 03:29:50;;;;;;;5.35;4.22;;;4.70;62.80;;;;;;5094178;28;20066;-64
2023/01/31 03:32:19;;;;;;;4.93;4.25;;;4.70;62.90;;;;;;5094579;28;20043;-64
2023/01/31 03:34:45;;;;;;;5.13;3.97;;;4.70;62.90;;;;;;5094340;28;20031;-65
2023/01/31 03:37:36;;;;;;;5.45;4.03;;;4.70;62.90;;;;;;5093026;28;20035;-65
2023/01/31 03:40:08;;;;;;;5.10;4.00;;;4.70;62.90;;;;;;5093426;28;20040;-65
2023/01/31 03:42:52;;;;;;;5.60;4.45;;;4.70;62.90;;;;;;5092654;28;20031;-65
2023/01/31 03:45:31;;;;;;;6.78;4.75;;;4.70;62.80;;;;;;5094319;28;20063;-64
2023/01/31 03:47:59;;;;;;;5.75;4.20;;;4.80;62.80;;;;;;5094256;28;20024;-64
2023/01/31 03:50:39;;;;;;;5.47;4.40;;;4.80;62.90;;;;;;5092673;28;20035;-65
2023/01/31 03:53:21;;;;;;;4.75;4.05;;;4.70;62.80;;;;;;5094075;28;20016;-65
2023/01/31 03:56:01;;;;;;;4.88;3.80;;;4.70;62.80;;;;;;5093068;28;20028;-64
2023/01/31 03:58:30;;;;;;;5.85;4.38;;;4.70;62.80;;;;;;5093932;28;20462;-65
2023/01/31 04:01:00;;;;;;;5.82;4.35;;;4.70;62.80;;;;;;5094028;28;20353;-65
2023/01/31 04:03:40;;;;;;;6.00;4.63;;;4.70;62.80;;;;;;5093721;28;20069;-67
2023/01/31 04:06:08;;;;;;;5.53;4.35;;;4.70;62.80;;;;;;5092487;28;20043;-64
2023/01/31 04:08:33;;;;;;;6.20;4.38;;;4.70;62.80;;;;;;5092667;28;20044;-65
2023/01/31 04:11:04;;;;;;;5.32;4.38;;;4.80;62.80;;;;;;5093700;28;20059;-66
2023/01/31 04:13:29;;;;;;;5.43;4.45;;;4.80;62.90;;;;;;5093896;28;20105;-66
2023/01/31 04:15:55;;;;;;;5.40;4.38;;;4.70;62.80;;;;;;5093748;28;20059;-64
2023/01/31 04:18:21;;;;;;;5.00;3.92;;;4.70;62.80;;;;;;5093668;28;20020;-63
2023/01/31 04:20:46;;;;;;;5.93;4.32;;;4.70;62.80;;;;;;5093631;28;20020;-65
2023/01/31 04:23:12;;;;;;;5.80;4.50;;;4.70;62.80;;;;;;5093714;28;20024;-65
2023/01/31 04:25:38;;;;;;;5.68;4.57;;;4.70;62.80;;;;;;5093508;28;20454;-65
2023/01/31 04:28:03;;;;;;;6.75;5.00;;;4.70;62.80;;;;;;5094815;28;20028;-65
2023/01/31 04:30:29;;;;;;;6.25;4.60;;;4.70;62.80;;;;;;5097580;28;20505;-65
2023/01/31 04:32:55;;;;;;;6.13;4.63;;;4.70;62.80;;;;;;5096220;28;20031;-66
2023/01/31 04:35:20;;;;;;;5.03;4.05;;;4.70;62.80;;;;;;5097992;28;20024;-64
2023/01/31 04:37:46;;;;;;;5.70;4.20;;;4.70;62.80;;;;;;5097756;28;20032;-64
2023/01/31 04:40:13;;;;;;;5.25;4.20;;;4.70;62.90;;;;;;5097702;28;20497;-64
2023/01/31 04:42:39;;;;;;;5.55;4.25;;;4.70;62.80;;;;;;5097569;28;20371;-65
2023/01/31 04:45:05;;;;;;;6.20;4.40;;;4.70;62.80;;;;;;5096075;28;20423;-64
2023/01/31 04:47:30;;;;;;;6.00;4.43;;;4.70;62.80;;;;;;5097946;28;20036;-65
2023/01/31 04:49:56;;;;;;;6.05;4.63;;;4.70;62.80;;;;;;5096121;28;20161;-64
2023/01/31 04:52:23;;;;;;;5.38;4.18;;;4.70;62.80;;;;;;5097245;28;20028;-65
2023/01/31 04:54:49;;;;;;;5.57;4.20;;;4.70;62.80;;;;;;5097134;28;20020;-65
2023/01/31 04:57:14;;;;;;;6.45;4.80;;;4.70;62.80;;;;;;5097125;28;20032;-64
2023/01/31 04:59:40;;;;;;;5.55;4.40;;;4.70;62.80;;;;;;5095904;28;20103;-64
2023/01/31 05:02:06;;;;;;;6.18;4.78;;;4.70;62.80;;;;;;5096945;28;20112;-65
2023/01/31 05:04:31;;;;;;;5.57;4.15;;;4.70;63.40;;;;;;5097117;28;20024;-64
2023/01/31 05:06:57;;;;;;;5.05;4.22;;;4.70;62.80;;;;;;5095547;28;20063;-64
2023/01/31 05:09:23;;;;;;;6.30;4.40;;;4.70;62.80;;;;;;5097350;28;20507;-65
2023/01/31 05:11:50;;;;;;;5.57;4.53;;;4.70;62.80;;;;;;5097104;28;20058;-65
2023/01/31 05:14:16;;;;;;;5.65;4.50;;;4.70;62.80;;;;;;5095739;28;20531;-67
2023/01/31 05:16:46;;;;;;;5.63;4.35;;;4.70;62.80;;;;;;5095509;28;20024;-65
2023/01/31 05:19:13;;;;;;;6.32;4.68;;;4.70;62.80;;;;;;5097224;28;20020;-65
2023/01/31 05:21:53;;;;;;;6.30;4.75;;;4.70;62.80;;;;;;5095371;28;20028;-65
2023/01/31 05:24:23;;;;;;;6.65;4.90;;;4.70;62.80;;;;;;5096905;28;20069;-64
2023/01/31 05:26:51;;;;;;;6.05;4.80;;;4.70;62.80;;;;;;5095023;28;20077;-65
2023/01/31 05:29:17;;;;;;;5.93;4.10;;;4.70;62.80;;;;;;5096597;28;20468;-65
2023/01/31 05:31:43;;;;;;;6.10;4.60;;;4.70;62.80;;;;;;5096929;28;20054;-65
2023/01/31 05:34:13;;;;;;;5.93;4.45;;;4.70;62.80;;;;;;5096390;28;20039;-65
2023/01/31 05:36:40;;;;;;;5.95;4.72;;;4.70;62.80;;;;;;5095127;28;20028;-65
2023/01/31 05:39:06;;;;;;;5.22;4.05;;;4.70;62.70;;;;;;5095623;28;20024;-67
2023/01/31 05:41:31;;;;;;;5.32;4.25;;;4.70;62.80;;;;;;5095973;28;20099;-66
2023/01/31 05:43:57;;;;;;;6.25;4.65;;;4.70;62.70;;;;;;5096287;28;20020;-65
2023/01/31 05:46:22;;;;;;;5.35;4.30;;;4.80;62.80;;;;;;5095872;28;20040;-66
2023/01/31 05:48:48;;;;;;;5.90;4.47;;;4.80;62.80;;;;;;5096093;28;20059;-65
2023/01/31 05:51:13;;;;;;;6.57;4.85;;;4.80;62.80;;;;;;5096203;28;20028;-66
2023/01/31 05:53:39;;;;;;;5.95;4.40;;;4.80;62.80;;;;;;5096110;28;20384;-64
2023/01/31 05:56:05;;;;;;;5.50;3.97;;;4.80;62.80;;;;;;5094390;28;20030;-67
2023/01/31 05:58:31;;;;;;;5.18;4.07;;;4.80;62.70;;;;;;5094755;28;20031;-65
2023/01/31 06:00:56;;;;;;;5.80;4.53;;;4.80;62.70;;;;;;5094521;28;20378;-65
2023/01/31 06:03:22;;;;;;;4.85;4.00;;;4.80;62.70;;;;;;5095762;28;20062;-66
2023/01/31 06:05:48;;;;;;;6.35;4.57;;;4.80;62.70;;;;;;5096050;28;20075;-65
2023/01/31 06:08:13;;;;;;;5.88;4.63;;;4.80;62.70;;;;;;5095498;28;20101;-66
2023/01/31 06:10:39;;;;;;;5.57;3.88;;;4.80;62.70;;;;;;5094249;28;20073;-69
2023/01/31 06:13:06;;;;;;;5.90;3.88;;;4.90;63.60;;;;;;5096008;28;20048;-72
2023/01/31 06:15:32;;;;;;;4.65;3.90;;;4.90;64.30;;;;;;5095517;28;20103;-70
2023/01/31 06:17:58;;;;;;;5.03;4.03;;;5.10;64.60;;;;;;5094464;28;20457;-69
2023/01/31 14:18:46;;;;;;;5.70;4.60;;;5.30;61.50;;;;;;5188411;22;1389270;-77
2023/01/31 14:21:30;;;;;;;6.13;4.85;;;5.20;61.40;;;;;;5128458;28;20476;-82
2023/01/31 14:24:00;;;;;;;5.97;4.77;;;5.20;62.20;;;;;;5114853;28;20062;-80
2023/01/31 14:26:47;;;;;;;6.85;4.90;;;5.20;62.70;;;;;;5113893;28;20031;-76
2023/01/31 14:29:25;;;;;;;6.20;4.90;;;5.30;63.10;;;;;;5094571;28;20075;-77
2023/01/31 14:31:53;;;;;;;6.80;5.00;;;5.40;63.40;;;;;;5093592;28;20031;-75
2023/01/31 14:34:21;;;;;;;6.28;4.80;;;5.40;63.50;;;;;;5092793;28;20119;-74
2023/01/31 14:37:24;;;;;;;7.72;5.35;;;5.50;63.60;;;;;;5112338;28;20488;-77
2023/01/31 14:40:14;;;;;;;7.38;5.22;;;5.50;63.60;;;;;;5110867;28;20028;-75
2023/01/31 14:42:48;;;;;;;8.45;5.28;;;5.60;63.70;;;;;;5111048;28;20028;-77
2023/01/31 14:45:25;;;;;;;8.02;5.50;;;5.60;63.60;;;;;;5092881;28;20026;-77
2023/01/31 14:48:14;;;;;;;7.07;5.38;;;5.70;63.60;;;;;;5111818;28;20111;-77
2023/01/31 14:50:56;;;;;;;6.63;4.93;;;5.80;63.60;;;;;;5093609;28;20035;-74
2023/01/31 14:53:21;;;;;;;6.47;5.00;;;5.80;63.60;;;;;;5110802;28;20028;-75
2023/01/31 14:55:56;;;;;;;6.93;5.07;;;5.80;63.50;;;;;;5110723;28;20030;-76
2023/01/31 14:58:26;;;;;;;6.72;4.55;;;5.80;63.50;;;;;;5110638;28;20534;-76
2023/01/31 15:00:57;;;;;;;6.30;4.75;;;5.80;63.50;;;;;;5112773;28;20031;-77
2023/01/31 15:03:28;;;;;;;7.78;6.03;;;5.80;63.40;;;;;;5110765;28;20020;-75
2023/01/31 15:06:14;;;;;;;8.40;5.00;;;5.90;63.40;;;;;;5110669;28;20024;-76
2023/01/31 15:08:41;;;;;;;6.18;4.78;;;5.90;63.30;;;;;;5110350;28;20028;-74
2023/01/31 15:11:40;;;;;;;8.02;5.28;;;5.90;63.40;;;;;;5094218;28;20639;-73
2023/01/31 15:14:22;;;;;;;7.18;5.53;;;5.90;63.20;;;;;;5122674;28;20421;-80
2023/01/31 15:16:56;;;;;;;7.47;5.43;;;5.90;63.30;;;;;;5118187;28;20139;-74
2023/01/31 15:19:24;;;;;;;7.90;5.70;;;6.00;63.30;;;;;;5080914;28;20401;-74
2023/01/31 15:21:59;;;;;;;6.22;4.60;;;5.90;63.20;;;;;;5071553;28;20033;-78
2023/01/31 15:24:29;;;;;;;6.85;5.13;;;6.00;63.20;;;;;;5071956;28;20496;-77
2023/01/31 15:26:56;;;;;;;7.13;5.00;;;6.00;63.20;;;;;;5071544;28;20517;-77
2023/01/31 15:29:30;;;;;;;8.40;5.45;;;6.00;63.20;;;;;;5081870;28;20029;-79
2023/01/31 15:32:07;;;;;;;6.68;4.88;;;6.00;63.20;;;;;;5076037;28;20369;-80
2023/01/31 15:34:51;;;;;;;6.90;5.07;;;6.00;63.20;;;;;;5076565;28;20024;-74
2023/01/31 15:37:22;;;;;;;7.20;5.25;;;6.00;63.10;;;;;;5058011;28;20028;-80
2023/01/31 15:39:55;;;;;;;8.05;5.57;;;6.00;63.10;;;;;;5076519;28;20366;-75
2023/01/31 15:42:26;;;;;;;7.68;4.82;;;6.00;63.10;;;;;;5076070;28;20037;-76
2023/01/31 15:45:20;;;;;;;6.57;4.75;;;6.00;63.10;;;;;;5058264;28;20028;-76
2023/01/31 15:48:10;;;;;;;6.22;4.80;;;6.00;63.00;;;;;;5075842;28;20062;-74
2023/01/31 15:50:36;;;;;;;6.72;4.80;;;6.00;62.90;;;;;;5058018;28;20024;-74
2023/01/31 15:53:26;;;;;;;7.00;5.45;;;6.00;63.00;;;;;;5077114;28;20032;-75
2023/01/31 15:55:58;;;;;;;7.30;4.63;;;6.00;62.90;;;;;;5076418;28;20493;-73
2023/01/31 15:58:29;;;;;;;7.88;5.50;;;6.00;63.00;;;;;;5075526;28;20043;-77
2023/01/31 16:00:58;;;;;;;7.63;4.97;;;6.00;63.00;;;;;;5076349;28;20024;-73
2023/01/31 16:03:36;;;;;;;7.57;5.57;;;6.00;63.00;;;;;;5057747;28;20029;-74
2023/01/31 16:06:02;;;;;;;7.93;5.53;;;6.00;63.00;;;;;;5075524;28;20525;-79
2023/01/31 16:08:32;;;;;;;7.07;4.63;;;6.00;62.90;;;;;;5076416;28;20035;-78
2023/01/31 16:11:00;;;;;;;6.97;5.00;;;6.00;62.90;;;;;;5057516;28;20100;-79
2023/01/31 16:13:26;;;;;;;6.75;4.85;;;6.00;63.50;;;;;;5060841;28;20024;-80
2023/01/31 16:15:53;;;;;;;7.15;4.72;;;6.00;62.90;;;;;;5060917;28;20024;-79
2023/01/31 16:18:20;;;;;;;7.05;4.90;;;6.00;62.90;;;;;;5060736;28;20048;-77
2023/01/31 16:20:47;;;;;;;7.15;5.22;;;6.00;62.90;;;;;;5078808;28;20419;-81
2023/01/31 16:23:31;;;;;;;7.30;5.30;;;6.00;62.90;;;;;;5078370;28;20059;-79
2023/01/31 16:26:20;;;;;;;7.72;5.22;;;6.00;62.80;;;;;;5077310;28;20123;-81
2023/01/31 16:28:53;;;;;;;7.78;5.47;;;6.00;62.90;;;;;;5078217;28;20036;-78
2023/01/31 16:31:20;;;;;;;7.10;5.22;;;6.00;62.80;;;;;;5060112;28;20029;-78
2023/01/31 16:33:49;;;;;;;7.13;5.03;;;6.00;62.80;;;;;;5060024;28;20024;-79
2023/01/31 16:36:19;;;;;;;7.28;5.32;;;6.00;62.80;;;;;;5077930;28;20020;-78
2023/01/31 16:41:59;;;;;;;7.32;5.32;;;6.00;62.80;;;;;;5076889;28;20044;-80
2023/01/31 16:48:18;;;;;;;8.38;5.63;;;6.00;62.70;;;;;;5078396;28;20035;-82
2023/01/31 16:50:43;;;;;;;7.07;5.28;;;6.00;62.70;;;;;;5060539;28;20036;-80
2023/01/31 16:53:17;;;;;;;6.63;4.80;;;6.00;62.70;;;;;;5060336;28;20413;-80
2023/01/31 16:55:44;;;;;;;6.60;5.13;;;6.00;62.80;;;;;;5059526;28;20035;-79
2023/01/31 16:58:32;;;;;;;7.78;5.35;;;6.00;62.80;;;;;;5077122;28;20048;-79
2023/01/31 17:01:17;;;;;;;8.07;5.65;;;6.00;62.80;;;;;;5077923;28;20021;-80
2023/01/31 17:03:43;;;;;;;6.72;4.70;;;6.00;62.80;;;;;;5077726;28;20021;-80
2023/01/31 17:06:20;;;;;;;7.65;5.07;;;6.00;62.80;;;;;;5077662;28;20474;-80
2023/01/31 17:08:46;;;;;;;8.15;5.68;;;6.00;62.80;;;;;;5077709;28;20454;-82
2023/01/31 17:11:12;;;;;;;7.15;5.35;;;6.00;62.80;;;;;;5077029;28;20040;-78
2023/01/31 17:13:38;;;;;;;7.95;5.32;;;5.90;62.70;;;;;;5076631;28;20028;-81
2023/01/31 17:16:13;;;;;;;8.75;5.70;;;5.90;62.70;;;;;;5076890;28;20028;-79
2023/01/31 17:18:39;;;;;;;7.72;5.60;;;5.90;62.80;;;;;;5076703;28;20041;-79
2023/01/31 17:21:05;;;;;;;7.72;5.47;;;6.00;62.80;;;;;;5059324;28;20044;-79
2023/01/31 17:23:30;;;;;;;8.02;5.40;;;6.00;62.80;;;;;;5076942;28;20025;-79
2023/01/31 17:25:56;;;;;;;8.05;6.07;;;6.00;62.80;;;;;;5076635;28;20054;-80
2023/01/31 17:28:22;;;;;;;7.28;5.22;;;6.00;62.80;;;;;;5076870;28;20066;-81
2023/01/31 17:30:47;;;;;;;9.15;6.32;;;6.00;62.80;;;;;;5076777;28;20442;-79
2023/01/31 17:33:14;;;;;;;7.57;5.40;;;6.00;62.80;;;;;;5058699;28;20451;-79
2023/01/31 17:38:29;;;;;;;7.15;4.90;;;5.90;62.70;;;;;;5076711;28;20055;-79
2023/01/31 17:40:54;;;;;;;7.93;5.45;;;6.00;62.70;;;;;;5058524;28;20032;-78
2023/01/31 17:43:21;;;;;;;8.07;5.53;;;6.00;62.70;;;;;;5076475;28;20031;-80
2023/01/31 17:49:12;;;;;;;7.35;5.53;;;6.00;62.70;;;;;;5076180;28;20035;-79
2023/01/31 17:55:02;;;;;;;8.90;6.15;;;6.00;62.70;;;;;;5076842;28;20036;-80
2023/01/31 17:57:27;;;;;;;8.45;5.75;;;6.00;62.70;;;;;;5058390;28;20044;-80
2023/01/31 17:59:53;;;;;;;8.98;5.88;;;6.00;62.70;;;;;;5076579;28;20520;-80
2023/01/31 18:02:19;;;;;;;8.10;5.82;;;5.90;62.70;;;;;;5076336;28;20052;-80
2023/01/31 18:04:44;;;;;;;8.75;6.07;;;6.00;62.70;;;;;;5076963;28;20468;-79
2023/01/31 18:07:14;;;;;;;7.95;5.45;;;5.90;62.70;;;;;;5078587;28;20036;-79
